Time;durP1;ratioP1;P1;durP2;ratioP2;P2;SDS_P1;SDS_P2;PMS_P1;PMS_P2;Temp;Humidity;BMP_temperature;BMP_pressure;BME280_temperature;BME280_humidity;BME280_pressure;Samples;Min_cycle;Max_cycle;Signal;HPM_P1;HPM_P2
2022/07/15 00:02:16;;;;;;;9.70;3.80;;;11.20;99.90;;;;;;4977322;28;20057;-70
2022/07/15 00:04:41;;;;;;;10.40;4.55;;;11.30;99.90;;;;;;4976665;28;20050;-69
2022/07/15 00:07:07;;;;;;;11.05;3.63;;;11.40;99.90;;;;;;4976930;28;20450;-70
2022/07/15 00:12:18;;;;;;;15.13;4.32;;;11.60;99.90;;;;;;4994192;28;20046;-70
2022/07/15 00:14:44;;;;;;;12.48;4.45;;;11.70;99.90;;;;;;4994116;28;20077;-70
2022/07/15 00:17:10;;;;;;;8.73;4.32;;;11.70;99.90;;;;;;4994128;28;20077;-70
2022/07/15 00:19:36;;;;;;;11.02;4.38;;;11.80;99.90;;;;;;4994244;28;20050;-69
2022/07/15 00:22:02;;;;;;;14.00;4.53;;;11.90;99.90;;;;;;4974390;28;20040;-70
2022/07/15 00:24:29;;;;;;;7.63;4.03;;;11.90;99.90;;;;;;4976188;28;20489;-70
2022/07/15 00:26:56;;;;;;;11.23;4.57;;;12.00;99.90;;;;;;4976643;28;20105;-70
2022/07/15 00:29:22;;;;;;;9.27;4.07;;;12.10;99.90;;;;;;4976536;28;20130;-70
2022/07/15 00:31:48;;;;;;;9.98;4.50;;;12.10;99.90;;;;;;4960511;28;20073;-70
2022/07/15 00:34:16;;;;;;;9.80;3.72;;;12.20;99.90;;;;;;4993811;28;20048;-70
2022/07/15 00:36:42;;;;;;;10.07;4.45;;;12.30;99.90;;;;;;4976110;28;20050;-70
2022/07/15 00:39:09;;;;;;;8.20;3.67;;;12.40;99.90;;;;;;4976358;28;20046;-70
2022/07/15 00:41:41;;;;;;;9.38;4.38;;;12.40;99.90;;;;;;4993914;28;20046;-70
2022/07/15 00:44:07;;;;;;;14.40;4.60;;;12.50;99.90;;;;;;4998172;28;20536;-70
2022/07/15 00:46:35;;;;;;;10.27;3.70;;;12.60;99.90;;;;;;4995750;28;20113;-70
2022/07/15 00:49:03;;;;;;;10.18;3.47;;;12.60;99.90;;;;;;4995515;28;20468;-70
2022/07/15 00:51:54;;;;;;;12.23;4.40;;;12.70;99.90;;;;;;5010974;28;20850;-70
2022/07/15 00:54:25;;;;;;;9.88;4.03;;;12.80;99.90;;;;;;5012177;28;20503;-71
2022/07/15 00:56:56;;;;;;;8.02;3.88;;;12.80;99.90;;;;;;5013177;28;20038;-70
2022/07/15 00:59:24;;;;;;;12.43;3.55;;;12.80;99.90;;;;;;5013051;28;20042;-71
2022/07/15 01:01:52;;;;;;;17.20;3.83;;;12.90;99.90;;;;;;4995414;28;20080;-71
2022/07/15 01:04:20;;;;;;;11.38;4.60;;;13.00;99.90;;;;;;4991722;28;20393;-70
2022/07/15 01:06:46;;;;;;;7.00;2.55;;;13.00;99.90;;;;;;4975847;28;20046;-70
2022/07/15 01:09:12;;;;;;;9.20;3.95;;;13.00;99.90;;;;;;4993380;28;20085;-70
2022/07/15 01:11:38;;;;;;;6.15;3.25;;;13.10;99.90;;;;;;4993224;28;20079;-71
2022/07/15 01:14:04;;;;;;;8.93;3.78;;;13.10;99.90;;;;;;4976214;28;20046;-70
2022/07/15 01:16:31;;;;;;;12.13;4.63;;;13.10;99.90;;;;;;4976131;28;20416;-70
2022/07/15 01:18:57;;;;;;;9.13;3.65;;;13.20;99.90;;;;;;4960079;28;20176;-70
2022/07/15 01:21:23;;;;;;;8.30;4.18;;;13.20;99.90;;;;;;4991030;28;20125;-70
2022/07/15 01:23:49;;;;;;;8.68;4.05;;;13.20;99.90;;;;;;4975828;28;20050;-70
2022/07/15 01:26:16;;;;;;;14.00;4.10;;;13.20;99.90;;;;;;4993225;28;20381;-70
2022/07/15 01:28:42;;;;;;;9.02;3.30;;;13.30;99.90;;;;;;4960031;28;20113;-70
2022/07/15 01:31:09;;;;;;;13.30;4.60;;;13.30;99.90;;;;;;4975682;28;20039;-70
2022/07/15 01:33:35;;;;;;;10.73;3.65;;;13.30;99.90;;;;;;4976055;28;20125;-70
2022/07/15 01:36:01;;;;;;;9.20;3.95;;;13.30;99.90;;;;;;4993103;28;20557;-70
2022/07/15 01:38:28;;;;;;;11.88;4.05;;;13.30;99.90;;;;;;4975633;28;20081;-70
2022/07/15 01:40:55;;;;;;;10.48;3.80;;;13.30;99.90;;;;;;4975536;28;20043;-70
2022/07/15 01:43:21;;;;;;;9.15;4.15;;;13.30;99.90;;;;;;4959909;28;20128;-70
2022/07/15 01:45:47;;;;;;;12.90;3.92;;;13.30;99.90;;;;;;4941880;28;20117;-70
2022/07/15 01:50:59;;;;;;;10.00;3.90;;;13.20;99.90;;;;;;4956164;28;20089;-70
2022/07/15 01:53:27;;;;;;;9.88;4.07;;;13.10;99.90;;;;;;4954297;28;20597;-70
2022/07/15 01:55:53;;;;;;;10.07;3.13;;;13.10;99.90;;;;;;4940517;28;20086;-70
2022/07/15 01:58:19;;;;;;;8.60;3.40;;;13.00;99.90;;;;;;4973757;28;20038;-70
2022/07/15 02:00:46;;;;;;;10.43;3.10;;;12.90;99.90;;;;;;4956205;28;20042;-70
2022/07/15 02:03:12;;;;;;;11.18;3.30;;;12.80;99.90;;;;;;4940587;28;20129;-70
2022/07/15 02:05:39;;;;;;;8.90;3.83;;;12.70;99.90;;;;;;4980644;28;20109;-70
2022/07/15 02:08:05;;;;;;;9.23;3.33;;;12.50;99.90;;;;;;4979358;28;20050;-69
2022/07/15 02:10:40;;;;;;;10.63;3.60;;;12.40;99.90;;;;;;4978988;28;20488;-70
2022/07/15 02:13:11;;;;;;;10.60;3.58;;;12.30;99.90;;;;;;4963261;28;20556;-70
2022/07/15 02:15:38;;;;;;;12.25;3.88;;;12.20;99.90;;;;;;4996514;28;20126;-70
2022/07/15 02:18:05;;;;;;;8.65;3.40;;;12.20;99.90;;;;;;4979316;28;20042;-69
2022/07/15 02:20:32;;;;;;;10.85;3.80;;;12.10;99.90;;;;;;4979051;28;20167;-69
2022/07/15 02:22:58;;;;;;;12.82;4.53;;;12.00;99.90;;;;;;4977028;28;20509;-70
2022/07/15 02:25:29;;;;;;;10.80;3.72;;;11.90;99.90;;;;;;4962656;28;20042;-69
2022/07/15 02:27:58;;;;;;;8.80;3.80;;;11.90;99.90;;;;;;4996392;28;20061;-70
2022/07/15 02:30:25;;;;;;;13.02;3.92;;;11.90;99.90;;;;;;4978869;28;20042;-69
2022/07/15 02:32:51;;;;;;;18.17;4.85;;;11.80;99.90;;;;;;4978671;28;20504;-69
2022/07/15 02:35:17;;;;;;;8.60;3.45;;;11.70;99.90;;;;;;4970770;28;20046;-69
2022/07/15 02:37:44;;;;;;;8.95;4.22;;;11.70;99.90;;;;;;4996233;28;20050;-69
2022/07/15 02:40:11;;;;;;;13.25;4.05;;;11.60;99.90;;;;;;4978634;28;20038;-70
2022/07/15 02:42:37;;;;;;;10.25;3.72;;;11.60;99.90;;;;;;4978608;28;20053;-69
2022/07/15 02:45:03;;;;;;;11.15;3.90;;;11.50;99.90;;;;;;4980504;28;20046;-69
2022/07/15 02:47:29;;;;;;;13.18;4.40;;;11.50;99.90;;;;;;5015371;28;20185;-69
2022/07/15 02:49:55;;;;;;;19.05;5.50;;;11.40;99.90;;;;;;4998087;28;20077;-69
2022/07/15 02:52:21;;;;;;;10.02;3.63;;;11.40;99.90;;;;;;5013317;28;20555;-69
2022/07/15 02:54:47;;;;;;;28.70;5.00;;;11.30;99.90;;;;;;5014354;28;20045;-69
2022/07/15 02:57:13;;;;;;;14.60;4.72;;;11.20;99.90;;;;;;5015448;28;20061;-69
2022/07/15 02:59:39;;;;;;;21.98;4.15;;;11.20;99.90;;;;;;5015431;28;20120;-69
2022/07/15 03:02:05;;;;;;;9.52;3.25;;;11.10;99.90;;;;;;5013670;28;20056;-69
2022/07/15 03:04:31;;;;;;;12.63;4.32;;;11.10;99.90;;;;;;5015207;28;20058;-69
2022/07/15 03:06:57;;;;;;;7.38;3.25;;;11.00;99.90;;;;;;5015117;28;20133;-69
2022/07/15 03:09:22;;;;;;;214.13;15.35;;;10.90;99.90;;;;;;4997820;28;20092;-68
2022/07/15 03:11:48;;;;;;;15.00;4.10;;;10.90;99.90;;;;;;4997277;28;20076;-68
2022/07/15 03:14:14;;;;;;;12.52;4.15;;;10.90;99.90;;;;;;5015071;28;20049;-68
2022/07/15 03:16:40;;;;;;;12.00;4.40;;;10.80;99.90;;;;;;5012994;28;20073;-68
2022/07/15 03:19:07;;;;;;;9.88;3.50;;;10.80;99.90;;;;;;5013718;28;20081;-68
2022/07/15 03:21:33;;;;;;;16.77;4.07;;;10.70;99.90;;;;;;4994957;28;20038;-68
2022/07/15 03:23:59;;;;;;;11.23;3.88;;;10.60;99.90;;;;;;5014792;28;20042;-69
2022/07/15 03:26:25;;;;;;;7.38;3.38;;;10.60;99.90;;;;;;5014855;28;20045;-68
2022/07/15 03:28:50;;;;;;;9.43;3.65;;;10.50;99.90;;;;;;5014525;28;20091;-68
2022/07/15 03:31:17;;;;;;;10.15;3.20;;;10.50;99.90;;;;;;5013377;28;20069;-68
2022/07/15 03:33:43;;;;;;;12.07;4.15;;;10.50;99.90;;;;;;5015049;28;20121;-68
2022/07/15 03:36:09;;;;;;;7.30;3.42;;;10.50;99.90;;;;;;5014572;28;20130;-68
2022/07/15 03:38:34;;;;;;;11.48;3.20;;;10.40;99.90;;;;;;5013340;28;20034;-68
2022/07/15 03:41:00;;;;;;;9.95;3.30;;;10.40;99.90;;;;;;5013272;28;20045;-68
2022/07/15 03:43:29;;;;;;;9.57;3.15;;;10.40;99.90;;;;;;5013098;28;20053;-68
2022/07/15 03:45:55;;;;;;;13.15;3.55;;;10.30;99.90;;;;;;4993780;28;20054;-68
2022/07/15 03:48:22;;;;;;;9.48;3.33;;;10.30;99.90;;;;;;4994980;28;20070;-68
2022/07/15 03:50:48;;;;;;;9.32;2.65;;;10.30;99.90;;;;;;4994781;28;20042;-68
2022/07/15 03:53:14;;;;;;;10.45;3.33;;;10.30;99.90;;;;;;4975334;28;20042;-68
2022/07/15 03:55:39;;;;;;;9.80;3.33;;;10.30;99.90;;;;;;4994787;28;20093;-69
2022/07/15 03:58:06;;;;;;;9.25;3.17;;;10.30;99.90;;;;;;4977201;28;20228;-68
2022/07/15 04:00:32;;;;;;;7.85;2.83;;;10.30;99.90;;;;;;4961280;28;20048;-68
2022/07/15 04:02:58;;;;;;;9.45;3.17;;;10.30;99.90;;;;;;4977061;28;20480;-68
2022/07/15 04:05:23;;;;;;;7.50;3.15;;;10.30;99.90;;;;;;4976824;28;20054;-67
2022/07/15 04:07:49;;;;;;;10.88;4.40;;;10.30;99.90;;;;;;4994369;28;20515;-68
2022/07/15 04:10:15;;;;;;;8.60;3.08;;;10.20;99.90;;;;;;4994514;28;20039;-67
2022/07/15 04:12:41;;;;;;;7.40;3.35;;;10.30;99.90;;;;;;4977029;28;20086;-68
2022/07/15 04:15:07;;;;;;;7.07;3.28;;;10.20;99.90;;;;;;4977196;28;20047;-67
2022/07/15 04:17:34;;;;;;;8.35;3.50;;;10.30;99.90;;;;;;4977133;28;20502;-68
2022/07/15 04:20:00;;;;;;;10.13;3.17;;;10.30;99.90;;;;;;4976895;28;20046;-68
2022/07/15 04:22:26;;;;;;;9.32;3.67;;;10.30;99.90;;;;;;4992173;28;20046;-68
2022/07/15 04:24:52;;;;;;;7.85;3.10;;;10.30;99.90;;;;;;4976743;28;20069;-68
2022/07/15 04:27:18;;;;;;;9.80;3.65;;;10.30;99.90;;;;;;4976658;28;20042;-67
2022/07/15 04:29:44;;;;;;;10.43;3.30;;;10.30;99.90;;;;;;4976801;28;20043;-67
2022/07/15 04:32:10;;;;;;;10.38;2.95;;;10.30;99.90;;;;;;4976576;28;20354;-67
2022/07/15 04:34:36;;;;;;;9.55;3.03;;;10.40;99.90;;;;;;4976730;28;20532;-67
2022/07/15 04:37:02;;;;;;;9.63;2.97;;;10.40;99.90;;;;;;4994085;28;20038;-68
2022/07/15 04:39:28;;;;;;;9.70;3.47;;;10.40;99.90;;;;;;4976813;28;20366;-68
2022/07/15 04:41:53;;;;;;;6.82;2.67;;;10.40;99.90;;;;;;4976599;28;20104;-67
2022/07/15 04:44:19;;;;;;;8.30;2.65;;;10.40;99.90;;;;;;4997410;28;20491;-69
2022/07/15 04:46:45;;;;;;;6.57;2.33;;;10.50;99.90;;;;;;5008021;28;20124;-67
2022/07/15 04:51:55;;;;;;;9.20;3.53;;;10.60;99.90;;;;;;5011231;28;20532;-67
2022/07/15 04:54:21;;;;;;;9.85;2.60;;;10.60;99.90;;;;;;5012038;28;20042;-68
2022/07/15 04:56:47;;;;;;;6.85;2.90;;;10.70;99.90;;;;;;5011920;28;20058;-68
2022/07/15 04:59:12;;;;;;;7.05;2.35;;;10.80;99.90;;;;;;5012073;28;20041;-68
2022/07/15 05:01:38;;;;;;;7.28;2.50;;;10.90;99.90;;;;;;5013190;28;20046;-68
2022/07/15 05:04:04;;;;;;;6.13;2.42;;;10.90;99.90;;;;;;5013193;28;20045;-68
2022/07/15 05:06:30;;;;;;;6.97;2.63;;;11.10;99.90;;;;;;4995346;28;20056;-69
2022/07/15 05:08:56;;;;;;;6.57;2.75;;;11.30;99.90;;;;;;5012953;28;20110;-68
2022/07/15 05:11:22;;;;;;;5.68;2.80;;;11.50;99.90;;;;;;5011599;28;20052;-68
2022/07/15 05:13:47;;;;;;;4.53;2.05;;;11.70;99.90;;;;;;5013234;28;20053;-69
2022/07/15 05:16:13;;;;;;;8.50;2.47;;;11.80;99.90;;;;;;4995291;28;20065;-69
2022/07/15 05:18:40;;;;;;;5.35;2.35;;;12.00;99.90;;;;;;5012979;28;20045;-70
2022/07/15 05:21:06;;;;;;;8.90;2.47;;;12.10;99.90;;;;;;5012537;28;20053;-69
2022/07/15 05:23:32;;;;;;;5.70;2.28;;;12.30;99.90;;;;;;5009901;28;20048;-69
2022/07/15 05:25:57;;;;;;;6.68;2.55;;;12.40;99.90;;;;;;5012902;28;20041;-70
2022/07/15 05:28:23;;;;;;;6.22;1.67;;;12.50;99.90;;;;;;5011372;28;20408;-69
2022/07/15 05:30:49;;;;;;;3.15;1.45;;;12.60;99.90;;;;;;4995453;28;20042;-69
2022/07/15 05:33:16;;;;;;;5.07;1.90;;;12.70;99.90;;;;;;5011779;28;20045;-70
2022/07/15 05:35:42;;;;;;;4.30;1.73;;;12.70;99.90;;;;;;5011734;28;20380;-69
2022/07/15 05:38:08;;;;;;;7.45;2.05;;;12.80;99.90;;;;;;5012759;28;20042;-70
2022/07/15 05:40:34;;;;;;;2.72;1.35;;;12.80;99.90;;;;;;5013894;28;20041;-69
2022/07/15 05:43:00;;;;;;;5.70;1.50;;;12.90;99.90;;;;;;5016867;28;20037;-69
2022/07/15 05:45:26;;;;;;;6.68;1.90;;;13.00;99.90;;;;;;4999979;28;20489;-70
2022/07/15 05:47:52;;;;;;;5.95;1.35;;;13.10;99.90;;;;;;4997029;28;20074;-70
2022/07/15 05:50:19;;;;;;;6.47;1.55;;;13.20;99.90;;;;;;4963504;28;20053;-70
2022/07/15 05:52:45;;;;;;;4.07;1.25;;;13.30;99.90;;;;;;4994758;28;20038;-69
2022/07/15 05:55:11;;;;;;;5.38;1.45;;;13.40;99.90;;;;;;4963699;28;20038;-69
2022/07/15 05:57:37;;;;;;;5.00;1.10;;;13.60;99.90;;;;;;4979507;28;20496;-69
2022/07/15 06:00:05;;;;;;;7.97;1.77;;;13.60;99.90;;;;;;4979281;28;20053;-70
2022/07/15 06:02:31;;;;;;;4.22;1.00;;;13.70;99.90;;;;;;4963172;28;20485;-70
2022/07/15 06:04:57;;;;;;;2.75;0.88;;;13.90;99.90;;;;;;4978993;28;20057;-70
2022/07/15 06:07:23;;;;;;;3.97;1.55;;;14.00;99.90;;;;;;4979459;28;20053;-70
2022/07/15 06:09:51;;;;;;;2.58;0.70;;;14.20;99.90;;;;;;4996532;28;20042;-70
2022/07/15 06:12:17;;;;;;;3.00;0.60;;;14.40;99.90;;;;;;4963347;28;20034;-70
2022/07/15 06:14:43;;;;;;;1.80;0.60;;;14.60;99.90;;;;;;4979107;28;20556;-70
2022/07/15 06:17:09;;;;;;;3.42;0.70;;;14.80;99.90;;;;;;4979278;28;20046;-71
2022/07/15 06:19:35;;;;;;;4.68;0.80;;;15.00;99.90;;;;;;4996545;28;20042;-71
2022/07/15 06:22:01;;;;;;;2.40;0.47;;;15.20;99.90;;;;;;4994797;28;20038;-70
2022/07/15 06:24:27;;;;;;;5.30;0.70;;;15.30;99.90;;;;;;4996166;28;20097;-71
2022/07/15 06:26:53;;;;;;;3.33;0.40;;;15.60;99.90;;;;;;4978953;28;20042;-71
2022/07/15 06:29:19;;;;;;;6.38;1.30;;;15.80;99.90;;;;;;4996485;28;20038;-71
2022/07/15 06:31:45;;;;;;;3.72;0.60;;;16.00;99.90;;;;;;4996327;28;20481;-71
2022/07/15 06:34:11;;;;;;;2.67;0.43;;;16.30;99.90;;;;;;4979000;28;20116;-71
2022/07/15 06:36:37;;;;;;;1.75;0.40;;;16.50;99.90;;;;;;4996178;28;20061;-72
2022/07/15 06:39:03;;;;;;;1.25;0.32;;;16.90;99.90;;;;;;4978606;28;20121;-71
2022/07/15 06:41:31;;;;;;;1.33;0.50;;;17.30;99.90;;;;;;4995924;28;20508;-71
2022/07/15 06:43:57;;;;;;;1.75;0.50;;;17.50;99.90;;;;;;4963264;28;20042;-72
2022/07/15 06:46:23;;;;;;;4.88;0.70;;;17.50;99.90;;;;;;4994891;28;20496;-72
2022/07/15 06:48:49;;;;;;;2.42;0.40;;;17.50;99.90;;;;;;4997996;28;20091;-70
2022/07/15 06:51:15;;;;;;;3.95;1.35;;;17.50;99.90;;;;;;5013412;28;20490;-71
2022/07/15 06:53:40;;;;;;;1.98;0.50;;;17.60;99.90;;;;;;4996323;28;20044;-72
2022/07/15 06:56:06;;;;;;;2.30;0.40;;;17.80;99.90;;;;;;4997930;28;20371;-71
2022/07/15 06:58:32;;;;;;;1.90;0.40;;;18.20;99.90;;;;;;4997729;28;20049;-71
2022/07/15 07:00:59;;;;;;;0.95;0.47;;;18.50;99.90;;;;;;4997726;28;20045;-70
2022/07/15 07:03:26;;;;;;;2.75;0.40;;;18.80;99.90;;;;;;4988957;28;20113;-72
2022/07/15 07:05:52;;;;;;;2.17;0.38;;;19.00;99.90;;;;;;4977799;28;20050;-71
2022/07/15 07:08:17;;;;;;;2.30;0.50;;;19.20;99.90;;;;;;4977815;28;20045;-69
2022/07/15 07:10:43;;;;;;;1.65;0.40;;;19.30;99.90;;;;;;4977853;28;20046;-71
2022/07/15 07:13:09;;;;;;;2.10;0.55;;;19.50;99.90;;;;;;4961801;28;20034;-71
2022/07/15 07:15:36;;;;;;;1.23;0.60;;;19.60;99.90;;;;;;4977789;28;20053;-71
2022/07/15 07:18:02;;;;;;;1.10;0.40;;;19.80;99.90;;;;;;4995486;28;20046;-69
2022/07/15 07:20:28;;;;;;;0.82;0.30;;;19.90;99.90;;;;;;4961704;28;20038;-72
2022/07/15 07:22:54;;;;;;;3.53;0.57;;;20.00;99.90;;;;;;4993029;28;20038;-71
2022/07/15 07:25:20;;;;;;;1.67;0.30;;;20.00;99.90;;;;;;4977878;28;20440;-72
2022/07/15 07:27:46;;;;;;;2.92;0.70;;;20.00;99.90;;;;;;5004890;28;20544;-70
2022/07/15 07:30:12;;;;;;;2.83;0.57;;;20.10;99.90;;;;;;4997055;28;20099;-74
2022/07/15 07:32:38;;;;;;;2.13;0.40;;;20.20;99.90;;;;;;4980761;28;20048;-72
2022/07/15 07:35:04;;;;;;;1.30;0.35;;;20.40;99.90;;;;;;4996550;28;20049;-71
2022/07/15 07:37:34;;;;;;;1.95;0.45;;;20.60;99.90;;;;;;5014583;28;20116;-70
2022/07/15 07:40:00;;;;;;;2.55;0.50;;;20.80;99.90;;;;;;4996865;28;20507;-70
2022/07/15 07:42:26;;;;;;;6.82;0.57;;;20.80;99.90;;;;;;4997014;28;20037;-73
2022/07/15 07:44:51;;;;;;;2.20;0.32;;;20.70;99.90;;;;;;5003774;28;20497;-71
2022/07/15 07:47:17;;;;;;;3.85;0.70;;;20.50;99.90;;;;;;4994922;28;20551;-72
2022/07/15 07:49:44;;;;;;;1.00;0.30;;;20.40;99.90;;;;;;4977483;28;20624;-72
2022/07/15 07:52:09;;;;;;;1.75;0.30;;;20.10;99.90;;;;;;4974910;28;20477;-72
2022/07/15 07:54:35;;;;;;;1.33;0.55;;;20.10;99.90;;;;;;4994530;28;20053;-72
2022/07/15 07:57:01;;;;;;;0.77;0.30;;;20.10;99.90;;;;;;4994720;28;20127;-72
2022/07/15 07:59:27;;;;;;;2.13;0.40;;;20.10;99.90;;;;;;4977069;28;20126;-72
2022/07/15 08:01:53;;;;;;;1.98;0.40;;;20.20;99.90;;;;;;4977069;28;20134;-71
2022/07/15 08:04:19;;;;;;;1.65;0.35;;;20.30;99.90;;;;;;4960322;28;20101;-73
2022/07/15 08:06:45;;;;;;;1.25;0.57;;;20.40;99.90;;;;;;4960439;28;20042;-71
2022/07/15 08:09:11;;;;;;;1.90;0.40;;;20.70;99.90;;;;;;4994518;28;20041;-72
2022/07/15 08:11:36;;;;;;;1.38;0.30;;;20.90;99.90;;;;;;4994377;28;20040;-71
2022/07/15 08:14:02;;;;;;;0.80;0.20;;;21.10;99.90;;;;;;4977231;28;20046;-71
2022/07/15 08:16:28;;;;;;;1.05;0.20;;;21.10;99.90;;;;;;4960856;28;20048;-70
2022/07/15 08:18:54;;;;;;;3.05;0.40;;;20.80;99.90;;;;;;4976993;28;20090;-71
2022/07/15 08:21:20;;;;;;;1.63;0.30;;;20.50;99.90;;;;;;4974337;28;20046;-72
2022/07/15 08:23:45;;;;;;;2.25;0.43;;;20.10;99.90;;;;;;4994292;28;20081;-71
2022/07/15 08:26:18;;;;;;;2.05;0.40;;;19.80;99.90;;;;;;4993999;28;20050;-72
2022/07/15 08:28:44;;;;;;;2.28;0.30;;;19.60;99.90;;;;;;4994229;28;20123;-71
2022/07/15 08:31:10;;;;;;;2.72;0.63;;;19.40;99.90;;;;;;4976564;28;20501;-70
2022/07/15 08:33:36;;;;;;;2.25;0.30;;;19.40;99.90;;;;;;4976906;28;20077;-69
2022/07/15 08:36:02;;;;;;;2.88;0.40;;;19.50;99.90;;;;;;4976503;28;20053;-71
2022/07/15 08:38:29;;;;;;;1.20;0.35;;;19.70;99.90;;;;;;4976532;28;20077;-71
2022/07/15 08:40:57;;;;;;;3.25;0.77;;;19.90;99.90;;;;;;4976512;28;20038;-73
2022/07/15 08:43:23;;;;;;;2.33;0.40;;;20.00;99.90;;;;;;4960187;28;20042;-70
2022/07/15 08:45:49;;;;;;;2.10;0.50;;;20.00;99.90;;;;;;5011839;28;20034;-70
2022/07/15 08:48:17;;;;;;;2.13;0.40;;;19.90;99.90;;;;;;4995675;28;20081;-69
2022/07/15 08:50:43;;;;;;;2.58;0.60;;;19.80;99.90;;;;;;4996018;28;20073;-70
2022/07/15 08:53:09;;;;;;;1.73;0.50;;;19.90;99.90;;;;;;5011480;28;20093;-70
2022/07/15 08:55:35;;;;;;;1.13;0.30;;;20.20;99.90;;;;;;4995553;28;20066;-70
2022/07/15 08:58:01;;;;;;;3.10;0.65;;;20.40;99.90;;;;;;4995596;28;20048;-70
2022/07/15 09:00:30;;;;;;;2.33;0.30;;;20.60;99.90;;;;;;4995744;28;20068;-69
2022/07/15 09:03:01;;;;;;;1.90;0.30;;;20.70;99.90;;;;;;4979587;28;20049;-71
2022/07/15 09:05:33;;;;;;;2.67;0.40;;;20.40;99.90;;;;;;4995303;28;20062;-69
2022/07/15 09:08:06;;;;;;;1.00;0.30;;;20.50;99.90;;;;;;4995545;28;20100;-72
2022/07/15 09:10:53;;;;;;;0.75;0.30;;;20.80;99.90;;;;;;4995598;28;20077;-69
2022/07/15 09:13:35;;;;;;;1.73;0.40;;;21.20;99.90;;;;;;4995580;28;20357;-70
2022/07/15 09:16:10;;;;;;;2.08;0.40;;;21.20;99.90;;;;;;4994936;28;20117;-70
2022/07/15 09:18:41;;;;;;;2.28;0.40;;;21.20;99.90;;;;;;5013124;28;20116;-68
2022/07/15 09:21:25;;;;;;;1.27;0.30;;;21.40;99.90;;;;;;4995329;28;20048;-71
2022/07/15 09:23:53;;;;;;;2.47;0.73;;;21.80;99.90;;;;;;4995090;28;20507;-70
2022/07/15 09:26:41;;;;;;;1.33;0.30;;;22.10;99.90;;;;;;4979358;28;20034;-69
2022/07/15 09:33:34;;;;;;;0.82;0.30;;;22.20;98.30;;;;;;4995208;28;20037;-71
2022/07/15 09:35:03;;;;;;;2.58;0.38;;;22.50;99.10;;;;;;4995211;28;20038;-71
2022/07/15 09:37:29;;;;;;;2.30;0.30;;;22.40;99.00;;;;;;5012798;28;20037;-67
2022/07/15 09:39:57;;;;;;;1.85;0.35;;;22.30;97.90;;;;;;4979035;28;20042;-70
2022/07/15 09:42:23;;;;;;;1.58;0.50;;;22.10;97.50;;;;;;4995116;28;20049;-67
2022/07/15 09:44:50;;;;;;;1.70;0.30;;;22.10;98.10;;;;;;5012352;28;20116;-69
2022/07/15 09:47:22;;;;;;;1.95;0.30;;;22.30;97.90;;;;;;5012602;28;20113;-71
2022/07/15 09:49:48;;;;;;;1.20;0.40;;;22.30;97.00;;;;;;4995012;28;20495;-72
2022/07/15 09:52:15;;;;;;;2.47;0.40;;;22.20;97.00;;;;;;4992851;28;20045;-71
2022/07/15 09:54:46;;;;;;;0.80;0.30;;;22.00;96.30;;;;;;4978706;28;20534;-70
2022/07/15 09:57:17;;;;;;;1.88;0.47;;;22.00;96.50;;;;;;4994996;28;20121;-70
2022/07/15 09:59:45;;;;;;;1.80;0.20;;;22.20;96.80;;;;;;4995214;28;20038;-72
2022/07/15 10:02:11;;;;;;;3.63;0.40;;;22.40;97.00;;;;;;4994593;28;20050;-70
2022/07/15 10:04:38;;;;;;;1.42;0.32;;;22.50;96.00;;;;;;5012272;28;20133;-70
2022/07/15 10:07:05;;;;;;;1.45;0.30;;;22.20;94.80;;;;;;4995027;28;20128;-71
2022/07/15 10:09:33;;;;;;;3.60;0.55;;;21.80;94.90;;;;;;4994741;28;20129;-71
2022/07/15 10:12:24;;;;;;;1.67;0.30;;;21.40;96.00;;;;;;4994685;28;20042;-70
2022/07/15 10:15:12;;;;;;;3.00;0.50;;;21.00;96.70;;;;;;4995011;28;20501;-68
2022/07/15 10:18:14;;;;;;;1.88;0.20;;;20.90;96.70;;;;;;4994919;28;20045;-68
2022/07/15 10:21:07;;;;;;;1.48;0.40;;;20.70;97.60;;;;;;4994712;28;20524;-71
2022/07/15 10:23:52;;;;;;;2.17;0.30;;;21.10;98.40;;;;;;4992496;28;20136;-69
2022/07/15 10:26:43;;;;;;;2.80;0.22;;;21.60;97.30;;;;;;4995200;28;20072;-69
2022/07/15 10:29:11;;;;;;;0.90;0.40;;;21.60;95.50;;;;;;4998472;28;20039;-71
2022/07/15 10:31:39;;;;;;;0.75;0.30;;;21.70;95.90;;;;;;4981847;28;20044;-71
2022/07/15 10:34:11;;;;;;;3.25;0.50;;;22.20;95.60;;;;;;5015729;28;20045;-72
2022/07/15 10:36:47;;;;;;;2.53;0.50;;;22.60;95.30;;;;;;5015681;28;20052;-69
2022/07/15 10:39:15;;;;;;;1.65;0.40;;;23.00;95.40;;;;;;4998216;28;20408;-71
2022/07/15 10:41:54;;;;;;;2.33;0.30;;;23.00;93.20;;;;;;4998068;28;20471;-70
2022/07/15 10:44:20;;;;;;;1.45;0.40;;;22.60;93.50;;;;;;4991690;28;20113;-71
2022/07/15 10:46:47;;;;;;;2.90;0.52;;;22.30;93.50;;;;;;4995935;28;20442;-70
2022/07/15 10:49:15;;;;;;;1.17;0.40;;;22.20;93.20;;;;;;4978697;28;20046;-70
2022/07/15 10:51:43;;;;;;;1.67;0.40;;;22.20;93.70;;;;;;4976146;28;20035;-69
2022/07/15 10:54:18;;;;;;;3.67;0.32;;;22.40;94.00;;;;;;4978690;28;20042;-67
2022/07/15 10:56:45;;;;;;;2.85;0.43;;;22.50;93.20;;;;;;4995872;28;20108;-71
2022/07/15 10:59:24;;;;;;;1.23;0.40;;;22.20;94.30;;;;;;4978304;28;20138;-68
2022/07/15 11:02:14;;;;;;;2.22;0.43;;;22.00;94.60;;;;;;4961876;28;20125;-70
2022/07/15 11:04:42;;;;;;;3.10;0.40;;;21.70;94.70;;;;;;4995622;28;20109;-70
2022/07/15 11:07:14;;;;;;;1.15;0.35;;;21.60;95.80;;;;;;4995684;28;20092;-72
2022/07/15 11:09:49;;;;;;;4.75;0.50;;;21.50;95.50;;;;;;4978389;28;20034;-70
2022/07/15 11:12:21;;;;;;;1.20;0.50;;;21.30;96.60;;;;;;4978288;28;20042;-70
2022/07/15 11:14:52;;;;;;;2.63;0.43;;;21.10;96.70;;;;;;4978020;28;20046;-70
2022/07/15 11:17:21;;;;;;;2.13;0.40;;;21.30;97.10;;;;;;4962174;28;20097;-69
2022/07/15 11:19:50;;;;;;;3.30;0.40;;;21.60;96.00;;;;;;4978225;28;20300;-71
2022/07/15 11:22:18;;;;;;;2.90;0.38;;;21.70;95.40;;;;;;4975763;28;20108;-72
2022/07/15 11:24:44;;;;;;;2.28;0.50;;;21.80;94.80;;;;;;4961791;28;20421;-72
2022/07/15 11:27:10;;;;;;;2.88;0.40;;;21.70;94.30;;;;;;4995116;28;20046;-70
2022/07/15 11:29:44;;;;;;;0.50;0.10;;;21.70;93.70;;;;;;4977738;28;20046;-71
2022/07/15 11:32:10;;;;;;;2.53;0.30;;;21.60;93.30;;;;;;4977926;28;20097;-69
2022/07/15 11:34:43;;;;;;;1.58;0.45;;;21.60;93.70;;;;;;4977707;28;20077;-71
2022/07/15 11:37:10;;;;;;;5.53;0.43;;;21.50;93.60;;;;;;4977529;28;20050;-73
2022/07/15 11:39:37;;;;;;;1.05;0.40;;;21.40;93.80;;;;;;4977162;28;20061;-71
2022/07/15 11:44:49;;;;;;;1.17;0.20;;;21.20;94.70;;;;;;4987349;28;20449;-67
2022/07/15 11:47:15;;;;;;;1.23;0.60;;;21.40;94.40;;;;;;4997166;28;20403;-68
2022/07/15 11:49:44;;;;;;;1.48;0.30;;;21.50;94.20;;;;;;5014331;28;20037;-71
2022/07/15 11:52:13;;;;;;;1.70;0.30;;;21.60;94.60;;;;;;5011946;28;20542;-68
2022/07/15 11:54:40;;;;;;;3.00;0.47;;;21.70;94.50;;;;;;5008459;28;20053;-69
2022/07/15 11:57:09;;;;;;;2.42;0.40;;;21.60;93.70;;;;;;4977164;28;20508;-70
2022/07/15 11:59:36;;;;;;;0.87;0.30;;;21.40;94.10;;;;;;5001555;28;20038;-72
2022/07/15 12:02:11;;;;;;;1.00;0.35;;;21.20;94.80;;;;;;4980710;28;20120;-71
2022/07/15 12:04:38;;;;;;;2.58;0.30;;;21.10;94.70;;;;;;4996218;28;20058;-72
2022/07/15 12:07:05;;;;;;;1.23;0.38;;;21.20;95.30;;;;;;4980367;28;20080;-70
2022/07/15 12:09:47;;;;;;;2.35;0.40;;;21.20;94.40;;;;;;4996313;28;20095;-72
2022/07/15 12:12:13;;;;;;;1.40;0.20;;;21.20;94.40;;;;;;5013859;28;20042;-72
2022/07/15 12:14:39;;;;;;;2.58;0.50;;;21.10;94.50;;;;;;4996365;28;20045;-72
2022/07/15 12:17:06;;;;;;;2.05;0.47;;;21.00;95.10;;;;;;4996284;28;20123;-72
2022/07/15 12:19:33;;;;;;;1.35;0.40;;;20.90;95.30;;;;;;4996215;28;20085;-71
2022/07/15 12:22:06;;;;;;;2.38;0.22;;;20.90;95.10;;;;;;4994228;28;20113;-71
2022/07/15 12:24:51;;;;;;;0.98;0.40;;;20.70;95.40;;;;;;4995865;28;20519;-69
2022/07/15 12:27:17;;;;;;;1.98;0.30;;;20.60;95.70;;;;;;4977918;28;20049;-69
2022/07/15 12:29:43;;;;;;;3.55;0.30;;;20.40;95.40;;;;;;4996124;28;20038;-70
2022/07/15 12:32:12;;;;;;;1.10;0.47;;;20.20;95.70;;;;;;4996240;28;20037;-69
2022/07/15 12:34:47;;;;;;;3.65;0.85;;;20.10;95.80;;;;;;5013822;28;20076;-70
2022/07/15 12:37:20;;;;;;;2.20;0.43;;;20.10;96.60;;;;;;4992103;28;20079;-69
2022/07/15 12:40:08;;;;;;;1.92;0.60;;;20.10;97.50;;;;;;4980759;28;20052;-71
2022/07/15 12:42:48;;;;;;;3.00;0.50;;;20.20;98.30;;;;;;4999179;28;20038;-71
2022/07/15 12:45:25;;;;;;;2.40;0.50;;;20.40;99.00;;;;;;4995628;28;20508;-69
2022/07/15 12:48:04;;;;;;;1.98;0.60;;;20.90;98.50;;;;;;4995981;28;20037;-69
2022/07/15 12:50:55;;;;;;;1.48;0.50;;;21.40;98.30;;;;;;4978547;28;20043;-69
2022/07/15 12:53:26;;;;;;;3.40;0.80;;;21.80;97.10;;;;;;4993517;28;20038;-68
2022/07/15 12:55:57;;;;;;;1.30;0.40;;;22.00;95.80;;;;;;4995724;28;20489;-75
2022/07/15 12:58:28;;;;;;;1.83;0.47;;;22.00;96.90;;;;;;5013298;28;20052;-72
2022/07/15 13:01:07;;;;;;;3.30;0.70;;;21.90;96.10;;;;;;4979370;28;20042;-70
2022/07/15 13:03:34;;;;;;;1.93;0.50;;;21.80;95.70;;;;;;4995879;28;20072;-70
2022/07/15 13:06:00;;;;;;;2.40;0.82;;;21.70;95.70;;;;;;5013064;28;20076;-71